createdAt,value
2022-10-05T00:01:01.094Z,96.47
2022-10-05T00:03:33.608Z,97.16
2022-10-05T00:06:01.800Z,96.65
2022-10-05T00:08:33.210Z,97.07
2022-10-05T00:11:01.499Z,97.75
2022-10-05T00:13:31.063Z,97.36
2022-10-05T00:16:11.557Z,96.75
2022-10-05T00:18:40.576Z,96.24
2022-10-05T00:21:34.933Z,95.58
2022-10-05T00:24:09.841Z,97.35
2022-10-05T00:26:38.052Z,96.54
2022-10-05T00:29:21.501Z,96.06
2022-10-05T00:31:50.684Z,96.11
2022-10-05T00:34:19.228Z,96.41
2022-10-05T00:36:47.612Z,98.27
2022-10-05T00:39:18.305Z,98.82
2022-10-05T00:41:55.513Z,98.74
2022-10-05T00:44:54.373Z,98.43
2022-10-05T00:47:57.503Z,98.97
2022-10-05T00:50:36.919Z,100.00
2022-10-05T00:53:11.229Z,99.16
2022-10-05T00:56:11.195Z,100.00
2022-10-05T00:59:11.858Z,100.00
2022-10-05T01:01:49.948Z,100.00
2022-10-05T01:04:39.703Z,100.00
2022-10-05T01:07:36.070Z,100.00
2022-10-05T01:10:11.687Z,100.00
2022-10-05T01:13:02.551Z,100.00
2022-10-05T01:15:43.321Z,100.00
2022-10-05T01:18:24.142Z,100.00
2022-10-05T01:21:07.863Z,100.00
2022-10-05T01:23:47.962Z,100.00
2022-10-05T01:26:31.415Z,100.00
2022-10-05T01:29:23.148Z,100.00
2022-10-05T01:32:10.267Z,100.00
2022-10-05T01:34:42.656Z,100.00
2022-10-05T01:37:22.794Z,100.00
2022-10-05T01:39:56.905Z,100.00
2022-10-05T01:42:49.514Z,100.00
2022-10-05T01:45:26.863Z,100.00
2022-10-05T01:48:22.976Z,100.00
2022-10-05T01:51:39.295Z,100.00
2022-10-05T01:54:24.471Z,99.22
2022-10-05T01:57:10.943Z,98.64
2022-10-05T02:00:03.728Z,99.52
2022-10-05T02:02:52.854Z,98.56
2022-10-05T02:05:30.433Z,99.28
2022-10-05T02:08:08.407Z,100.00
2022-10-05T02:10:42.319Z,100.00
2022-10-05T02:13:24.481Z,100.00
2022-10-05T02:16:01.651Z,100.00
2022-10-05T02:18:42.057Z,100.00
2022-10-05T02:21:11.032Z,100.00
2022-10-05T02:23:43.180Z,100.00
2022-10-05T02:26:13.242Z,99.56
2022-10-05T02:28:51.373Z,100.00
2022-10-05T02:31:25.833Z,100.00
2022-10-05T02:34:21.327Z,100.00
2022-10-05T02:37:15.608Z,100.00
2022-10-05T02:40:02.453Z,100.00
2022-10-05T02:42:53.210Z,100.00
2022-10-05T02:45:27.453Z,99.98
2022-10-05T02:48:27.300Z,100.00
2022-10-05T02:51:18.473Z,100.00
2022-10-05T02:54:18.034Z,100.00
2022-10-05T02:57:10.469Z,100.00
2022-10-05T02:59:41.795Z,100.00
2022-10-05T03:02:19.086Z,100.00
2022-10-05T03:05:05.624Z,100.00
2022-10-05T03:07:47.812Z,100.00
2022-10-05T03:10:28.576Z,100.00
2022-10-05T03:13:21.583Z,100.00
2022-10-05T03:16:10.806Z,100.00
2022-10-05T03:18:47.914Z,100.00
2022-10-05T03:21:44.902Z,100.00
2022-10-05T03:24:30.043Z,100.00
2022-10-05T03:27:18.748Z,100.00
2022-10-05T03:29:48.630Z,100.00
2022-10-05T03:32:43.631Z,100.00
2022-10-05T03:35:49.166Z,100.00
2022-10-05T03:38:42.464Z,100.00
2022-10-05T03:41:45.555Z,100.00
2022-10-05T03:44:38.710Z,100.00
2022-10-05T03:47:42.126Z,100.00
2022-10-05T03:50:33.367Z,100.00
2022-10-05T03:53:15.325Z,100.00
2022-10-05T03:55:59.617Z,100.00
2022-10-05T03:58:37.819Z,100.00
2022-10-05T04:01:15.348Z,100.00
2022-10-05T04:03:54.897Z,100.00
2022-10-05T04:06:35.501Z,100.00
2022-10-05T04:09:04.056Z,100.00
2022-10-05T04:11:39.095Z,100.00
2022-10-05T04:14:37.291Z,100.00
2022-10-05T04:17:12.402Z,100.00
2022-10-05T04:19:46.235Z,100.00
2022-10-05T04:22:22.915Z,100.00
2022-10-05T04:25:17.862Z,100.00
2022-10-05T04:28:31.928Z,100.00
2022-10-05T04:31:06.160Z,100.00
2022-10-05T04:33:34.808Z,100.00
2022-10-05T04:36:09.183Z,100.00
2022-10-05T04:39:02.277Z,100.00
2022-10-05T04:41:37.152Z,100.00
2022-10-05T04:44:27.113Z,100.00
2022-10-05T04:47:20.763Z,100.00
2022-10-05T04:50:17.644Z,100.00
2022-10-05T04:53:03.971Z,100.00
2022-10-05T04:55:44.831Z,99.66
2022-10-05T04:58:38.865Z,99.77
2022-10-05T05:01:31.011Z,100.00
2022-10-05T05:04:24.245Z,100.00
2022-10-05T05:07:08.093Z,100.00
2022-10-05T05:09:52.992Z,100.00
2022-10-05T05:13:05.762Z,100.00
2022-10-05T05:15:43.423Z,100.00
2022-10-05T05:18:49.239Z,100.00
2022-10-05T05:21:57.790Z,100.00
2022-10-05T05:24:45.054Z,100.00
2022-10-05T05:27:29.224Z,100.00
2022-10-05T05:30:10.176Z,100.00
2022-10-05T05:33:04.013Z,100.00
2022-10-05T05:36:02.511Z,100.00
2022-10-05T05:38:38.823Z,100.00
2022-10-05T05:41:09.344Z,100.00
2022-10-05T05:44:10.173Z,100.00
2022-10-05T05:47:03.465Z,100.00
2022-10-05T05:49:38.595Z,100.00
2022-10-05T05:52:17.371Z,100.00
2022-10-05T05:54:54.965Z,100.00
2022-10-05T05:57:41.546Z,100.00
2022-10-05T06:00:13.976Z,100.00
2022-10-05T06:02:51.089Z,100.00
2022-10-05T06:05:40.608Z,100.00
2022-10-05T06:08:18.475Z,100.00
2022-10-05T06:10:58.668Z,100.00
2022-10-05T06:13:33.651Z,100.00
2022-10-05T06:16:07.218Z,100.00
2022-10-05T06:18:39.732Z,100.00
2022-10-05T06:21:45.035Z,100.00
2022-10-05T06:24:26.300Z,100.00
2022-10-05T06:27:25.845Z,100.00
2022-10-05T06:30:01.589Z,100.00
2022-10-05T06:32:49.763Z,100.00
2022-10-05T06:35:55.747Z,100.00
2022-10-05T06:38:26.597Z,100.00
2022-10-05T06:41:13.768Z,100.00
2022-10-05T06:44:04.334Z,100.00
2022-10-05T06:46:59.412Z,98.94
2022-10-05T06:49:51.623Z,99.95
2022-10-05T06:52:26.598Z,100.00
2022-10-05T06:55:14.434Z,100.00
2022-10-05T06:57:49.297Z,100.00
2022-10-05T07:00:45.068Z,100.00
2022-10-05T07:03:22.639Z,98.00
2022-10-05T07:06:05.926Z,98.73
2022-10-05T07:09:02.295Z,99.77
2022-10-05T07:11:31.025Z,97.50
2022-10-05T07:14:26.388Z,97.24
2022-10-05T07:16:54.579Z,95.39
2022-10-05T07:19:26.423Z,95.73
2022-10-05T07:22:13.054Z,92.84
2022-10-05T07:25:08.514Z,93.41
2022-10-05T07:27:50.920Z,92.06
2022-10-05T07:30:21.447Z,90.50
2022-10-05T07:33:11.632Z,88.60
2022-10-05T07:36:20.671Z,87.13
2022-10-05T07:39:01.368Z,86.29
2022-10-05T07:41:43.669Z,84.52
2022-10-05T07:44:20.938Z,84.46
2022-10-05T07:47:09.212Z,81.25
2022-10-05T07:49:57.310Z,80.30
2022-10-05T07:52:36.692Z,80.29
2022-10-05T07:55:17.140Z,78.37
2022-10-05T07:57:51.867Z,76.91
2022-10-05T08:00:22.498Z,75.27
2022-10-05T08:03:07.913Z,75.80
2022-10-05T08:05:41.792Z,73.94
2022-10-05T08:08:21.441Z,74.20
2022-10-05T08:11:01.407Z,73.38
2022-10-05T08:13:50.138Z,70.12
2022-10-05T08:16:19.993Z,68.80
2022-10-05T08:19:10.740Z,66.59
2022-10-05T08:21:45.238Z,67.47
2022-10-05T08:24:22.781Z,65.50
2022-10-05T08:27:04.725Z,63.67
2022-10-05T08:30:10.941Z,64.02
2022-10-05T08:32:45.461Z,66.76
2022-10-05T08:35:39.182Z,68.13
2022-10-05T08:38:16.864Z,68.48
2022-10-05T08:41:09.790Z,69.50
2022-10-05T08:43:55.027Z,70.61
2022-10-05T08:46:42.307Z,71.88
2022-10-05T08:49:19.329Z,69.80
2022-10-05T08:52:11.904Z,67.01
2022-10-05T08:55:07.666Z,67.13
2022-10-05T08:57:41.855Z,63.58
2022-10-05T09:00:20.905Z,63.53
2022-10-05T09:03:32.172Z,63.04
2022-10-05T09:06:22.545Z,63.48
2022-10-05T09:09:16.233Z,63.74
2022-10-05T09:12:09.599Z,62.88
2022-10-05T09:15:24.424Z,65.14
2022-10-05T09:18:12.603Z,62.85
2022-10-05T09:20:53.026Z,60.87
2022-10-05T09:23:46.561Z,64.71
2022-10-05T09:26:52.455Z,62.23
2022-10-05T09:29:29.864Z,60.77
2022-10-05T09:32:05.366Z,58.16
2022-10-05T09:35:04.547Z,59.49
2022-10-05T09:38:00.525Z,59.24
2022-10-05T09:40:42.678Z,60.21
2022-10-05T09:43:38.455Z,63.44
2022-10-05T09:46:24.921Z,63.76
2022-10-05T09:49:15.139Z,64.57
2022-10-05T09:52:19.241Z,65.34
2022-10-05T09:55:24.737Z,64.27
2022-10-05T09:58:05.599Z,64.16
2022-10-05T10:01:09.100Z,62.71
2022-10-05T10:04:10.238Z,59.65
2022-10-05T10:07:06.495Z,56.48
2022-10-05T10:09:59.981Z,56.13
2022-10-05T10:12:45.390Z,57.84
2022-10-05T10:15:28.986Z,55.02
2022-10-05T10:18:19.080Z,57.57
2022-10-05T10:21:07.368Z,56.37
2022-10-05T10:23:49.181Z,55.63
2022-10-05T10:26:33.019Z,56.23
2022-10-05T10:29:12.991Z,53.96
2022-10-05T10:31:59.753Z,55.16
2022-10-05T10:35:00.070Z,55.98
2022-10-05T10:37:58.746Z,57.09
2022-10-05T10:40:45.979Z,53.10
2022-10-05T10:43:40.164Z,54.12
2022-10-05T10:46:32.986Z,50.95
2022-10-05T10:49:18.973Z,53.06
2022-10-05T10:52:09.390Z,53.72
2022-10-05T10:54:59.262Z,55.12
2022-10-05T10:57:40.067Z,55.08
2022-10-05T11:00:28.823Z,56.32
2022-10-05T11:03:34.313Z,55.69
2022-10-05T11:06:02.633Z,55.90
2022-10-05T11:08:53.251Z,52.71
2022-10-05T11:11:43.635Z,53.15
2022-10-05T11:14:33.299Z,52.97
2022-10-05T11:17:20.125Z,54.44
2022-10-05T11:20:04.421Z,53.83
2022-10-05T11:22:58.984Z,55.51
2022-10-05T11:25:47.271Z,55.48
2022-10-05T11:28:52.585Z,54.08
2022-10-05T11:31:43.784Z,53.45
2022-10-05T11:34:44.068Z,55.42
2022-10-05T11:37:47.163Z,55.31
2022-10-05T11:40:45.015Z,55.72
2022-10-05T11:43:53.049Z,55.95
2022-10-05T11:46:39.635Z,55.78
2022-10-05T11:49:29.346Z,58.51
2022-10-05T11:52:11.211Z,56.11
2022-10-05T11:55:11.382Z,54.57
2022-10-05T11:57:56.225Z,55.61
2022-10-05T12:00:40.709Z,55.32
2022-10-05T12:03:46.869Z,56.69
2022-10-05T12:06:40.352Z,55.85
2022-10-05T12:09:21.495Z,57.38
2022-10-05T12:12:26.839Z,58.26
2022-10-05T12:15:21.555Z,57.79
2022-10-05T12:17:51.163Z,56.01
2022-10-05T12:20:46.343Z,57.15
2022-10-05T12:23:33.858Z,57.57
2022-10-05T12:26:15.090Z,58.26
2022-10-05T12:29:07.709Z,58.77
2022-10-05T12:31:41.717Z,56.40
2022-10-05T12:34:15.749Z,57.40
2022-10-05T12:37:28.732Z,58.14
2022-10-05T12:40:24.300Z,58.68
2022-10-05T12:43:14.906Z,57.81
2022-10-05T12:45:54.366Z,58.33
2022-10-05T12:49:02.677Z,58.46
2022-10-05T12:51:59.715Z,58.66
2022-10-05T12:55:00.039Z,58.69
2022-10-05T12:57:46.160Z,59.94
2022-10-05T13:00:23.235Z,61.02
2022-10-05T13:03:05.228Z,62.24
2022-10-05T13:06:02.595Z,59.97
2022-10-05T13:08:44.134Z,60.45
2022-10-05T13:11:35.456Z,64.75
2022-10-05T13:14:21.802Z,65.95
2022-10-05T13:17:04.002Z,64.96
2022-10-05T13:19:46.699Z,64.43
2022-10-05T13:22:22.965Z,65.45
2022-10-05T13:25:27.199Z,65.60
2022-10-05T13:28:17.819Z,64.94
2022-10-05T13:30:56.724Z,64.90
2022-10-05T13:33:30.783Z,65.11
2022-10-05T13:36:10.736Z,65.24
2022-10-05T13:38:47.620Z,64.58
2022-10-05T13:41:49.640Z,65.61
2022-10-05T13:44:35.224Z,65.22
2022-10-05T13:47:23.691Z,64.50
2022-10-05T13:50:07.356Z,65.05
2022-10-05T13:53:00.134Z,65.97
2022-10-05T13:55:48.671Z,64.18
2022-10-05T13:58:55.549Z,64.28
2022-10-05T14:01:34.978Z,63.45
2022-10-05T14:04:18.369Z,63.33
2022-10-05T14:06:46.789Z,62.45
2022-10-05T14:09:35.031Z,61.96
2022-10-05T14:12:03.142Z,60.92
2022-10-05T14:14:42.329Z,61.50
2022-10-05T14:17:32.184Z,61.25
2022-10-05T14:20:16.122Z,62.77
2022-10-05T14:22:49.344Z,62.75
2022-10-05T14:25:19.840Z,60.79
2022-10-05T14:27:57.499Z,61.99
2022-10-05T14:30:28.715Z,60.39
2022-10-05T14:33:05.673Z,61.42
2022-10-05T14:35:56.791Z,60.88
2022-10-05T14:38:49.575Z,61.37
2022-10-05T14:41:21.259Z,60.89
2022-10-05T14:44:02.057Z,62.93
2022-10-05T14:46:35.050Z,61.50
2022-10-05T14:49:23.289Z,61.07
2022-10-05T14:51:53.387Z,62.99
2022-10-05T14:54:30.111Z,62.19
2022-10-05T14:57:15.505Z,62.06
2022-10-05T15:00:16.608Z,62.70
2022-10-05T15:03:16.203Z,61.96
2022-10-05T15:05:55.807Z,62.65
2022-10-05T15:08:42.540Z,63.41
2022-10-05T15:11:43.108Z,63.81
2022-10-05T15:14:25.290Z,63.18
2022-10-05T15:16:58.821Z,65.81
2022-10-05T15:19:44.877Z,64.99
2022-10-05T15:22:18.853Z,65.63
2022-10-05T15:24:50.172Z,65.40
2022-10-05T15:27:47.353Z,66.87
2022-10-05T15:30:18.444Z,67.65
2022-10-05T15:33:17.768Z,67.69
2022-10-05T15:36:00.946Z,67.01
2022-10-05T15:38:37.339Z,66.97
2022-10-05T15:41:17.997Z,68.81
2022-10-05T15:44:10.332Z,68.24
2022-10-05T15:47:03.719Z,68.75
2022-10-05T15:49:53.888Z,70.56
2022-10-05T15:52:36.229Z,69.42
2022-10-05T15:55:35.448Z,69.59
2022-10-05T15:58:08.467Z,70.21
2022-10-05T16:00:50.438Z,71.50
2022-10-05T16:03:33.065Z,72.56
2022-10-05T16:06:27.431Z,73.58
2022-10-05T16:09:26.379Z,73.23
2022-10-05T16:12:03.344Z,73.21
2022-10-05T16:14:47.704Z,74.87
2022-10-05T16:17:27.964Z,76.79
2022-10-05T16:20:04.506Z,78.42
2022-10-05T16:22:43.438Z,79.71
2022-10-05T16:25:22.515Z,79.29
2022-10-05T16:28:07.381Z,79.96
2022-10-05T16:30:55.222Z,79.80
2022-10-05T16:33:47.064Z,80.40
2022-10-05T16:36:49.910Z,81.00
2022-10-05T16:40:01.578Z,78.86
2022-10-05T16:42:35.761Z,79.08
2022-10-05T16:45:45.643Z,79.96
2022-10-05T16:48:26.169Z,80.90
2022-10-05T16:51:13.268Z,81.72
2022-10-05T16:53:45.832Z,81.56
2022-10-05T16:56:18.206Z,82.59
2022-10-05T16:58:52.752Z,82.37
2022-10-05T17:01:23.764Z,82.08
2022-10-05T17:04:06.136Z,83.15
2022-10-05T17:06:47.319Z,82.08
2022-10-05T17:09:28.808Z,83.59
2022-10-05T17:12:24.855Z,83.66
2022-10-05T17:15:31.842Z,83.13
2022-10-05T17:18:27.307Z,84.89
2022-10-05T17:21:03.424Z,84.65
2022-10-05T17:23:53.735Z,86.03
2022-10-05T17:26:54.166Z,85.02
2022-10-05T17:29:28.109Z,85.45
2022-10-05T17:32:00.676Z,85.50
2022-10-05T17:34:34.394Z,85.42
2022-10-05T17:37:16.486Z,85.55
2022-10-05T17:39:51.101Z,85.58
2022-10-05T17:42:34.238Z,85.51
2022-10-05T17:45:34.129Z,85.84
2022-10-05T17:48:05.172Z,85.50
2022-10-05T17:51:03.576Z,87.46
2022-10-05T17:53:56.023Z,86.94
2022-10-05T17:56:24.257Z,87.30
2022-10-05T17:58:59.707Z,87.24
2022-10-05T18:01:40.074Z,87.84
2022-10-05T18:04:11.831Z,87.56
2022-10-05T18:06:48.308Z,87.59
2022-10-05T18:09:23.011Z,87.67
2022-10-05T18:12:10.751Z,88.01
2022-10-05T18:15:07.264Z,87.50
2022-10-05T18:17:46.643Z,88.70
2022-10-05T18:20:24.273Z,87.96
2022-10-05T18:22:54.890Z,88.55
2022-10-05T18:25:29.646Z,89.00
2022-10-05T18:28:19.307Z,89.44
2022-10-05T18:31:00.199Z,89.44
2022-10-05T18:33:59.765Z,88.91
2022-10-05T18:36:44.594Z,89.77
2022-10-05T18:39:28.456Z,90.98
2022-10-05T18:42:02.945Z,90.85
2022-10-05T18:45:12.403Z,90.37
2022-10-05T18:48:05.560Z,91.37
2022-10-05T18:50:44.337Z,91.70
2022-10-05T18:53:51.573Z,92.31
2022-10-05T18:56:25.828Z,92.66
2022-10-05T18:59:32.207Z,94.07
2022-10-05T19:02:12.673Z,92.73
2022-10-05T19:05:42.587Z,93.94
2022-10-05T19:08:14.788Z,94.50
2022-10-05T19:10:57.655Z,94.63
2022-10-05T19:13:58.276Z,94.88
2022-10-05T19:16:45.593Z,93.94
2022-10-05T19:19:33.684Z,95.47
2022-10-05T19:22:25.165Z,95.47
2022-10-05T19:25:31.248Z,95.56
2022-10-05T19:28:05.802Z,95.46
2022-10-05T19:30:42.376Z,96.62
2022-10-05T19:33:26.208Z,96.28
2022-10-05T19:36:03.907Z,96.49
2022-10-05T19:38:54.891Z,96.56
2022-10-05T19:41:45.008Z,96.90
2022-10-05T19:44:41.334Z,97.55
2022-10-05T19:47:28.533Z,96.92
2022-10-05T19:49:59.640Z,97.41
2022-10-05T19:52:37.862Z,97.07
2022-10-05T19:55:12.245Z,96.38
2022-10-05T19:57:55.343Z,96.46
2022-10-05T20:00:31.343Z,96.48
2022-10-05T20:03:11.069Z,96.62
2022-10-05T20:05:40.250Z,96.22
2022-10-05T20:08:17.159Z,96.06
2022-10-05T20:11:04.424Z,96.62
2022-10-05T20:13:35.375Z,97.50
2022-10-05T20:16:31.322Z,97.33
2022-10-05T20:19:18.582Z,96.67
2022-10-05T20:21:50.120Z,96.94
2022-10-05T20:24:26.564Z,97.53
2022-10-05T20:27:04.977Z,97.16
2022-10-05T20:29:39.057Z,97.64
2022-10-05T20:32:12.399Z,98.53
2022-10-05T20:34:46.234Z,98.88
2022-10-05T20:37:16.682Z,98.48
2022-10-05T20:39:45.293Z,99.10
2022-10-05T20:42:14.114Z,98.93
2022-10-05T20:44:42.754Z,98.26
2022-10-05T20:47:11.319Z,98.61
2022-10-05T20:49:41.422Z,99.06
2022-10-05T20:52:11.757Z,99.87
2022-10-05T20:54:40.246Z,99.78
2022-10-05T20:57:09.608Z,99.37
2022-10-05T20:59:37.956Z,99.25
2022-10-05T21:02:06.807Z,99.76
2022-10-05T21:04:43.093Z,100.00
2022-10-05T21:07:11.519Z,99.87
2022-10-05T21:09:43.259Z,100.00
2022-10-05T21:12:12.269Z,99.99
2022-10-05T21:14:40.629Z,99.97
2022-10-05T21:17:09.631Z,100.00
2022-10-05T21:19:40.301Z,100.00
2022-10-05T21:22:10.137Z,99.70
2022-10-05T21:24:40.984Z,99.73
2022-10-05T21:27:10.247Z,99.70
2022-10-05T21:29:41.012Z,98.97
2022-10-05T21:32:11.994Z,99.12
2022-10-05T21:34:41.237Z,98.49
2022-10-05T21:37:09.323Z,99.29
2022-10-05T21:39:37.677Z,99.49
2022-10-05T21:42:06.164Z,100.00
2022-10-05T21:44:34.272Z,99.97
2022-10-05T21:47:04.421Z,99.98
2022-10-05T21:49:33.941Z,100.00
2022-10-05T21:52:05.699Z,100.00
2022-10-05T21:54:35.048Z,100.00
2022-10-05T21:57:03.547Z,100.00
2022-10-05T21:59:33.834Z,100.00
2022-10-05T22:02:03.020Z,100.00
2022-10-05T22:04:31.539Z,100.00
2022-10-05T22:06:59.864Z,100.00
2022-10-05T22:09:27.952Z,99.80
2022-10-05T22:11:57.434Z,100.00
2022-10-05T22:14:25.573Z,100.00
2022-10-05T22:16:54.467Z,100.00
2022-10-05T22:19:23.149Z,100.00
2022-10-05T22:21:51.373Z,99.43
2022-10-05T22:24:19.649Z,99.71
2022-10-05T22:26:51.407Z,100.00
2022-10-05T22:29:20.791Z,100.00
2022-10-05T22:31:49.524Z,100.00
2022-10-05T22:34:18.326Z,100.00
2022-10-05T22:36:50.487Z,100.00
2022-10-05T22:39:18.981Z,100.00
2022-10-05T22:41:47.332Z,100.00
2022-10-05T22:44:15.816Z,100.00
2022-10-05T22:46:44.307Z,100.00
2022-10-05T22:49:12.655Z,100.00
2022-10-05T22:51:41.123Z,100.00
2022-10-05T22:58:33.031Z,100.00
2022-10-05T23:01:09.988Z,100.00
2022-10-05T23:03:38.822Z,100.00
2022-10-05T23:06:10.889Z,100.00
2022-10-05T23:08:40.999Z,100.00
2022-10-05T23:11:15.170Z,100.00
2022-10-05T23:13:43.802Z,100.00
2022-10-05T23:16:17.616Z,100.00
2022-10-05T23:18:51.524Z,100.00
2022-10-05T23:21:21.907Z,100.00
2022-10-05T23:23:51.341Z,100.00
2022-10-05T23:26:22.749Z,100.00
2022-10-05T23:28:51.609Z,100.00
2022-10-05T23:31:23.230Z,100.00
2022-10-05T23:33:52.356Z,100.00
2022-10-05T23:36:25.889Z,100.00
2022-10-05T23:38:54.357Z,100.00
2022-10-05T23:41:23.637Z,100.00
2022-10-05T23:43:54.675Z,100.00
2022-10-05T23:46:23.354Z,100.00
2022-10-05T23:48:53.282Z,100.00
2022-10-05T23:51:21.692Z,100.00
2022-10-05T23:53:50.058Z,100.00
2022-10-05T23:56:18.262Z,100.00
2022-10-05T23:58:46.562Z,100.00
